Time;durP1;ratioP1;P1;durP2;ratioP2;P2;SDS_P1;SDS_P2;PMS_P1;PMS_P2;Temp;Humidity;BMP_temperature;BMP_pressure;BME280_temperature;BME280_humidity;BME280_pressure;Samples;Min_cycle;Max_cycle;Signal;HPM_P1;HPM_P2
2022/10/16 00:00:35;;;;;;;;;;;12.90;99.90;;;;;;5121353;27;19930;-73
2022/10/16 00:03:01;;;;;;;;;;;12.90;99.90;;;;;;5123626;27;20041;-73
2022/10/16 00:05:27;;;;;;;;;;;12.90;99.90;;;;;;5121079;27;20015;-73
2022/10/16 00:07:52;;;;;;;;;;;12.90;99.90;;;;;;5123515;27;20388;-72
2022/10/16 00:10:18;;;;;;;;;;;13.00;99.90;;;;;;5121128;27;19923;-72
2022/10/16 00:12:43;;;;;;;;;;;13.00;99.90;;;;;;5123846;27;20311;-72
2022/10/16 00:15:09;;;;;;;;;;;13.00;99.90;;;;;;5121500;27;19938;-72
2022/10/16 00:17:34;;;;;;;;;;;12.90;99.90;;;;;;5121205;27;20016;-73
2022/10/16 00:20:00;;;;;;;;;;;12.90;99.90;;;;;;5124946;27;19934;-72
2022/10/16 00:22:25;;;;;;;;;;;12.90;99.90;;;;;;5120060;27;20022;-73
2022/10/16 00:24:51;;;;;;;;;;;12.90;99.90;;;;;;5123871;27;19927;-73
2022/10/16 00:27:16;;;;;;;;;;;12.90;99.90;;;;;;5122039;28;19932;-72
2022/10/16 00:29:42;;;;;;;;;;;13.00;99.90;;;;;;5123763;28;19966;-72
2022/10/16 00:32:08;;;;;;;;;;;12.90;99.90;;;;;;5121128;28;20015;-73
2022/10/16 00:34:33;;;;;;;;;;;13.00;99.90;;;;;;5122250;28;20014;-73
2022/10/16 00:36:59;;;;;;;;;;;12.80;99.90;;;;;;5123895;28;19945;-72
2022/10/16 00:39:24;;;;;;;;;;;12.80;99.90;;;;;;5119713;28;20366;-73
2022/10/16 00:41:50;;;;;;;;;;;12.90;99.90;;;;;;5124615;28;19930;-73
2022/10/16 00:44:34;;;;;;;;;;;12.90;99.90;;;;;;5124946;28;19968;-73
2022/10/16 00:47:00;;;;;;;;;;;12.80;99.90;;;;;;5121007;27;19927;-73
2022/10/16 00:49:25;;;;;;;;;;;13.00;99.90;;;;;;5126523;27;19923;-73
2022/10/16 00:51:52;;;;;;;;;;;13.00;99.90;;;;;;5123925;27;20010;-73
2022/10/16 00:54:20;;;;;;;;;;;13.00;99.90;;;;;;5118465;27;19924;-73
2022/10/16 00:56:45;;;;;;;;;;;13.00;99.90;;;;;;5128550;27;19930;-73
2022/10/16 00:59:20;;;;;;;;;;;12.90;99.90;;;;;;5123368;27;19924;-73
2022/10/16 01:01:46;;;;;;;;;;;13.00;99.90;;;;;;5127571;27;19923;-72
2022/10/16 01:04:11;;;;;;;;;;;12.90;99.90;;;;;;5125376;27;20280;-72
2022/10/16 01:06:56;;;;;;;;;;;13.00;99.90;;;;;;5124852;27;19928;-72
2022/10/16 01:09:26;;;;;;;;;;;13.00;99.90;;;;;;5121536;27;19923;-72
2022/10/16 01:12:05;;;;;;;;;;;13.00;99.90;;;;;;5124939;27;19928;-71
2022/10/16 01:14:49;;;;;;;;;;;13.00;99.90;;;;;;5123992;27;20343;-72
2022/10/16 01:17:18;;;;;;;;;;;13.10;99.90;;;;;;5127061;27;19976;-72
2022/10/16 01:20:01;;;;;;;;;;;13.10;99.90;;;;;;5120329;27;20023;-72
2022/10/16 01:22:33;;;;;;;;;;;13.20;99.90;;;;;;5121296;27;19973;-72
2022/10/16 01:25:00;;;;;;;;;;;13.30;99.90;;;;;;5126214;27;19977;-73
2022/10/16 01:27:27;;;;;;;;;;;13.30;99.90;;;;;;5125825;27;19924;-72
2022/10/16 01:29:58;;;;;;;;;;;13.30;99.90;;;;;;5124514;27;19928;-73
2022/10/16 01:32:36;;;;;;;;;;;13.40;99.90;;;;;;5125441;27;19967;-72
2022/10/16 01:35:03;;;;;;;;;;;13.30;99.90;;;;;;5123762;27;19923;-73
2022/10/16 01:37:36;;;;;;;;;;;13.30;99.90;;;;;;5125840;27;19924;-72
2022/10/16 01:40:07;;;;;;;;;;;13.30;99.90;;;;;;5123899;27;20359;-73
2022/10/16 01:42:37;;;;;;;;;;;13.30;99.90;;;;;;5125909;27;20325;-72
2022/10/16 01:45:06;;;;;;;;;;;13.40;99.90;;;;;;5124181;27;19924;-72
2022/10/16 01:47:32;;;;;;;;;;;13.30;99.90;;;;;;5126492;27;19923;-73
2022/10/16 01:49:58;;;;;;;;;;;13.30;99.90;;;;;;5125693;27;20076;-72
2022/10/16 01:52:25;;;;;;;;;;;13.30;99.90;;;;;;5127360;27;19923;-71
2022/10/16 01:54:53;;;;;;;;;;;13.30;99.90;;;;;;5124566;27;20058;-72
2022/10/16 01:57:20;;;;;;;;;;;13.30;99.90;;;;;;5122308;27;19930;-72
2022/10/16 01:59:48;;;;;;;;;;;13.40;99.90;;;;;;5126132;27;19923;-72
2022/10/16 02:02:15;;;;;;;;;;;13.20;99.90;;;;;;5123487;27;20367;-72
2022/10/16 02:04:43;;;;;;;;;;;13.20;99.90;;;;;;5124903;27;19976;-72
2022/10/16 02:07:08;;;;;;;;;;;13.20;99.90;;;;;;5122283;27;19927;-71
2022/10/16 02:09:35;;;;;;;;;;;13.20;99.90;;;;;;5124563;27;19923;-72
2022/10/16 02:12:03;;;;;;;;;;;13.10;99.90;;;;;;5122900;27;19924;-72
2022/10/16 02:14:37;;;;;;;;;;;13.10;99.90;;;;;;5125674;27;19931;-72
2022/10/16 02:17:09;;;;;;;;;;;13.10;99.90;;;;;;5122998;27;19969;-72
2022/10/16 02:19:35;;;;;;;;;;;13.10;99.90;;;;;;5120378;27;20375;-72
2022/10/16 02:22:03;;;;;;;;;;;13.00;99.90;;;;;;5125755;27;19934;-72
2022/10/16 02:24:32;;;;;;;;;;;12.90;99.90;;;;;;5124093;27;20290;-72
2022/10/16 02:27:02;;;;;;;;;;;12.80;99.90;;;;;;5123807;27;19924;-72
2022/10/16 02:29:27;;;;;;;;;;;12.80;99.90;;;;;;5124747;27;19924;-72
2022/10/16 02:31:59;;;;;;;;;;;12.70;99.90;;;;;;5123465;27;19923;-72
2022/10/16 02:34:25;;;;;;;;;;;12.70;99.90;;;;;;5123960;27;19946;-72
2022/10/16 02:36:52;;;;;;;;;;;12.60;99.90;;;;;;5123009;27;19928;-73
2022/10/16 02:39:18;;;;;;;;;;;12.60;99.90;;;;;;5124925;27;19938;-72
2022/10/16 02:41:43;;;;;;;;;;;12.60;99.90;;;;;;5124861;27;19924;-72
2022/10/16 02:44:09;;;;;;;;;;;12.50;99.90;;;;;;5125547;27;19980;-72
2022/10/16 02:46:34;;;;;;;;;;;12.50;99.90;;;;;;5121997;27;19923;-72
2022/10/16 02:49:00;;;;;;;;;;;12.50;99.90;;;;;;5126284;27;19927;-72
2022/10/16 02:51:25;;;;;;;;;;;12.40;99.90;;;;;;5121502;27;19924;-72
2022/10/16 02:53:51;;;;;;;;;;;12.50;99.90;;;;;;5122606;27;19924;-72
2022/10/16 02:56:16;;;;;;;;;;;12.40;99.90;;;;;;5124864;27;19923;-72
2022/10/16 02:58:42;;;;;;;;;;;12.70;99.90;;;;;;5123429;27;19924;-72
2022/10/16 03:01:07;;;;;;;;;;;12.50;99.90;;;;;;5123627;27;19971;-72
2022/10/16 03:03:33;;;;;;;;;;;12.50;99.90;;;;;;5125184;27;20363;-72
2022/10/16 03:05:58;;;;;;;;;;;12.40;99.90;;;;;;5120345;27;19931;-72
2022/10/16 03:08:25;;;;;;;;;;;12.40;99.90;;;;;;5125430;27;20302;-72
2022/10/16 03:10:51;;;;;;;;;;;12.40;99.90;;;;;;5125265;27;20541;-72
2022/10/16 03:13:16;;;;;;;;;;;12.30;99.90;;;;;;5124054;27;19959;-73
2022/10/16 03:15:42;;;;;;;;;;;12.20;99.90;;;;;;5123639;27;20035;-72
2022/10/16 03:18:07;;;;;;;;;;;12.10;99.90;;;;;;5123562;27;19924;-73
2022/10/16 03:20:33;;;;;;;;;;;12.00;99.90;;;;;;5122441;27;19924;-72
2022/10/16 03:22:58;;;;;;;;;;;12.10;99.90;;;;;;5122663;27;19954;-72
2022/10/16 03:25:24;;;;;;;;;;;12.10;99.90;;;;;;5125410;27;19923;-72
2022/10/16 03:27:49;;;;;;;;;;;12.00;99.90;;;;;;5121724;27;20282;-72
2022/10/16 03:30:16;;;;;;;;;;;12.10;99.90;;;;;;5124453;27;19920;-72
2022/10/16 03:32:43;;;;;;;;;;;12.10;99.90;;;;;;5122084;27;19923;-72
2022/10/16 03:35:08;;;;;;;;;;;12.30;99.90;;;;;;5123162;27;19967;-73
2022/10/16 03:37:34;;;;;;;;;;;12.30;99.90;;;;;;5122725;27;19927;-72
2022/10/16 03:39:59;;;;;;;;;;;12.30;99.90;;;;;;5121256;27;19949;-72
2022/10/16 03:42:25;;;;;;;;;;;12.20;99.90;;;;;;5127928;27;19968;-71
2022/10/16 03:44:50;;;;;;;;;;;12.20;99.90;;;;;;5122211;27;19935;-72
2022/10/16 03:47:20;;;;;;;;;;;12.20;99.90;;;;;;5123758;27;20298;-72
2022/10/16 03:49:45;;;;;;;;;;;12.00;99.90;;;;;;5121287;27;19932;-72
2022/10/16 03:52:14;;;;;;;;;;;12.10;99.90;;;;;;5124502;27;20023;-72
2022/10/16 03:54:39;;;;;;;;;;;12.20;99.90;;;;;;5122099;27;19923;-72
2022/10/16 03:57:05;;;;;;;;;;;12.10;99.90;;;;;;5121778;27;20291;-73
2022/10/16 03:59:30;;;;;;;;;;;12.20;99.90;;;;;;5122049;27;19932;-73
2022/10/16 04:01:56;;;;;;;;;;;12.30;99.90;;;;;;5122209;27;19931;-72
2022/10/16 04:04:21;;;;;;;;;;;12.30;99.90;;;;;;5122741;27;19927;-73
2022/10/16 04:06:47;;;;;;;;;;;12.30;99.90;;;;;;5119005;27;19939;-72
2022/10/16 04:09:12;;;;;;;;;;;12.40;99.90;;;;;;5122976;27;20292;-73
2022/10/16 04:11:38;;;;;;;;;;;12.50;99.90;;;;;;5121503;27;19968;-73
2022/10/16 04:14:04;;;;;;;;;;;12.50;99.90;;;;;;5122392;27;20385;-73
2022/10/16 04:16:29;;;;;;;;;;;12.70;99.90;;;;;;5121330;27;19924;-73
2022/10/16 04:18:55;;;;;;;;;;;12.70;99.90;;;;;;5122588;27;19923;-73
2022/10/16 04:21:21;;;;;;;;;;;12.70;99.90;;;;;;5119275;27;19935;-73
2022/10/16 04:23:46;;;;;;;;;;;12.70;99.90;;;;;;5123155;27;19968;-74
2022/10/16 04:26:11;;;;;;;;;;;12.70;99.90;;;;;;5121410;28;19971;-73
2022/10/16 04:28:37;;;;;;;;;;;12.70;99.90;;;;;;5122819;27;19929;-73
2022/10/16 04:31:06;;;;;;;;;;;12.70;99.90;;;;;;5121272;28;19978;-74
2022/10/16 04:33:34;;;;;;;;;;;12.70;99.90;;;;;;5121613;28;20287;-73
2022/10/16 04:36:01;;;;;;;;;;;12.80;99.90;;;;;;5124818;27;19923;-74
2022/10/16 04:38:27;;;;;;;;;;;12.70;99.90;;;;;;5120376;28;19923;-74
2022/10/16 04:40:52;;;;;;;;;;;12.60;99.90;;;;;;5121808;28;20023;-73
2022/10/16 04:43:21;;;;;;;;;;;12.60;99.90;;;;;;5123598;27;19931;-74
2022/10/16 04:45:47;;;;;;;;;;;12.60;99.90;;;;;;5124692;28;19931;-74
2022/10/16 04:48:12;;;;;;;;;;;12.60;99.90;;;;;;5119227;28;19924;-73
2022/10/16 04:50:38;;;;;;;;;;;12.50;99.90;;;;;;5123986;28;19924;-73
2022/10/16 04:53:03;;;;;;;;;;;12.50;99.90;;;;;;5120678;28;20283;-73
2022/10/16 04:55:29;;;;;;;;;;;12.60;99.90;;;;;;5122723;28;20283;-75
2022/10/16 04:57:54;;;;;;;;;;;12.60;99.90;;;;;;5120518;28;19924;-75
2022/10/16 05:00:20;;;;;;;;;;;12.50;99.90;;;;;;5121097;28;20018;-76
2022/10/16 05:02:45;;;;;;;;;;;12.70;99.90;;;;;;5123606;28;20291;-74
2022/10/16 05:05:11;;;;;;;;;;;12.50;99.90;;;;;;5120796;28;19924;-75
2022/10/16 05:07:37;;;;;;;;;;;12.60;99.90;;;;;;5122131;28;19934;-75
2022/10/16 05:10:02;;;;;;;;;;;12.60;99.90;;;;;;5120655;27;20391;-73
2022/10/16 05:12:28;;;;;;;;;;;12.60;99.90;;;;;;5120867;28;20299;-73
2022/10/16 05:14:58;;;;;;;;;;;12.50;99.90;;;;;;5120616;28;19976;-73
2022/10/16 05:17:26;;;;;;;;;;;12.40;99.90;;;;;;5120611;28;19924;-73
2022/10/16 05:19:54;;;;;;;;;;;12.40;99.90;;;;;;5119969;28;19928;-72
2022/10/16 05:22:20;;;;;;;;;;;12.40;99.90;;;;;;5120905;28;19970;-73
2022/10/16 05:24:46;;;;;;;;;;;12.60;99.90;;;;;;5122003;28;19974;-72
2022/10/16 05:27:18;;;;;;;;;;;12.40;99.90;;;;;;5120312;28;19924;-73
2022/10/16 05:29:47;;;;;;;;;;;12.50;99.90;;;;;;5122849;27;20336;-72
2022/10/16 05:32:17;;;;;;;;;;;12.50;99.90;;;;;;5120036;28;19930;-73
2022/10/16 05:34:43;;;;;;;;;;;12.50;99.90;;;;;;5125815;27;19924;-73
2022/10/16 05:37:08;;;;;;;;;;;12.50;99.90;;;;;;5123161;27;19924;-73
2022/10/16 05:39:34;;;;;;;;;;;12.30;99.90;;;;;;5127459;27;19924;-73
2022/10/16 05:41:59;;;;;;;;;;;12.50;99.90;;;;;;5117876;27;19920;-73
2022/10/16 05:44:25;;;;;;;;;;;12.40;99.90;;;;;;5126784;27;19932;-73
2022/10/16 05:46:50;;;;;;;;;;;12.40;99.90;;;;;;5123692;27;19934;-72
2022/10/16 05:49:16;;;;;;;;;;;12.30;99.90;;;;;;5125200;27;19920;-73
2022/10/16 05:51:42;;;;;;;;;;;12.20;99.90;;;;;;5125115;27;19930;-71
2022/10/16 05:54:10;;;;;;;;;;;12.30;99.90;;;;;;5123081;27;20264;-74
2022/10/16 05:56:36;;;;;;;;;;;12.30;99.90;;;;;;5124337;27;20011;-73
2022/10/16 05:59:03;;;;;;;;;;;12.30;99.90;;;;;;5123445;27;19970;-74
2022/10/16 06:01:28;;;;;;;;;;;12.30;99.90;;;;;;5125169;27;20290;-74
2022/10/16 06:03:57;;;;;;;;;;;12.30;99.90;;;;;;5126644;27;19924;-74
2022/10/16 06:06:26;;;;;;;;;;;13.30;99.90;;;;;;5126615;27;19927;-73
2022/10/16 06:08:53;;;;;;;;;;;12.40;99.90;;;;;;5122032;27;20050;-73
2022/10/16 06:11:20;;;;;;;;;;;12.40;99.90;;;;;;5125592;27;19945;-73
2022/10/16 06:13:49;;;;;;;;;;;12.40;99.90;;;;;;5124646;27;19924;-72
2022/10/16 06:16:14;;;;;;;;;;;12.40;99.90;;;;;;5123634;27;19924;-73
2022/10/16 06:18:40;;;;;;;;;;;12.40;99.90;;;;;;5124677;27;19935;-72
2022/10/16 06:21:10;;;;;;;;;;;12.40;99.90;;;;;;5124509;27;19999;-72
2022/10/16 06:23:36;;;;;;;;;;;12.40;99.90;;;;;;5122347;27;20367;-73
2022/10/16 06:26:05;;;;;;;;;;;12.30;99.90;;;;;;5124695;27;19928;-72
2022/10/16 06:28:31;;;;;;;;;;;12.40;99.90;;;;;;5122261;27;19942;-73
2022/10/16 06:31:00;;;;;;;;;;;12.40;99.90;;;;;;5124684;27;19923;-73
2022/10/16 06:33:25;;;;;;;;;;;12.40;99.90;;;;;;5126382;27;19931;-73
2022/10/16 06:35:51;;;;;;;;;;;12.50;99.90;;;;;;5123171;27;20287;-73
2022/10/16 06:38:17;;;;;;;;;;;12.50;99.90;;;;;;5125991;27;20287;-73
2022/10/16 06:40:42;;;;;;;;;;;12.60;99.90;;;;;;5124046;27;19924;-73
2022/10/16 06:43:08;;;;;;;;;;;12.70;99.90;;;;;;5124407;27;20002;-72
2022/10/16 06:45:33;;;;;;;;;;;12.70;99.90;;;;;;5122776;27;19923;-73
2022/10/16 06:47:59;;;;;;;;;;;12.80;99.90;;;;;;5123973;27;19931;-72
2022/10/16 06:50:24;;;;;;;;;;;12.80;99.90;;;;;;5125643;27;19923;-71
2022/10/16 06:52:50;;;;;;;;;;;13.00;99.90;;;;;;5121702;27;20268;-74
2022/10/16 06:55:16;;;;;;;;;;;12.60;99.90;;;;;;5124332;27;19928;-74
2022/10/16 06:57:42;;;;;;;;;;;12.70;99.90;;;;;;5123041;27;19932;-74
2022/10/16 07:00:08;;;;;;;;;;;12.70;99.90;;;;;;5122673;27;19920;-73
2022/10/16 07:02:34;;;;;;;;;;;12.80;99.90;;;;;;5118964;27;20298;-72
2022/10/16 07:04:59;;;;;;;;;;;12.80;99.90;;;;;;5119766;27;20035;-73
2022/10/16 07:07:26;;;;;;;;;;;12.90;99.90;;;;;;5118749;27;19998;-72
2022/10/16 07:09:52;;;;;;;;;;;12.90;99.90;;;;;;5121241;27;19930;-71
2022/10/16 07:12:17;;;;;;;;;;;12.90;99.90;;;;;;5111191;27;19932;-71
2022/10/16 07:14:43;;;;;;;;;;;12.80;99.90;;;;;;5118538;27;20271;-72
2022/10/16 07:17:08;;;;;;;;;;;12.70;99.90;;;;;;5119232;27;19931;-75
2022/10/16 07:19:34;;;;;;;;;;;12.70;99.90;;;;;;5120615;27;19928;-74
2022/10/16 07:22:00;;;;;;;;;;;12.70;99.90;;;;;;5114660;27;19977;-90
2022/10/16 07:24:25;;;;;;;;;;;12.80;99.90;;;;;;5116265;27;19927;-72
2022/10/16 07:26:51;;;;;;;;;;;12.90;99.90;;;;;;5119487;27;20387;-73
2022/10/16 07:29:18;;;;;;;;;;;13.10;99.90;;;;;;5120224;27;20268;-71
2022/10/16 07:31:44;;;;;;;;;;;13.10;99.90;;;;;;5121020;27;19931;-72
2022/10/16 07:34:10;;;;;;;;;;;13.20;99.90;;;;;;5109850;27;19931;-72
2022/10/16 07:36:36;;;;;;;;;;;13.20;99.90;;;;;;5116471;27;20497;-73
2022/10/16 07:39:02;;;;;;;;;;;13.30;99.90;;;;;;5119116;27;20011;-72
2022/10/16 07:41:28;;;;;;;;;;;13.30;99.90;;;;;;5116648;27;20014;-72
2022/10/16 07:43:54;;;;;;;;;;;13.40;99.90;;;;;;5118179;27;20019;-71
2022/10/16 07:46:23;;;;;;;;;;;13.60;99.90;;;;;;5108806;27;20429;-72
2022/10/16 07:48:48;;;;;;;;;;;13.50;99.90;;;;;;5113255;27;19931;-73
2022/10/16 07:51:18;;;;;;;;;;;13.70;99.90;;;;;;5121608;27;19923;-68
2022/10/16 07:53:44;;;;;;;;;;;13.60;99.90;;;;;;5119130;27;19927;-68
2022/10/16 07:56:10;;;;;;;;;;;13.70;99.90;;;;;;5114251;27;19923;-70
2022/10/16 07:58:38;;;;;;;;;;;13.80;99.90;;;;;;5116686;27;19923;-71
2022/10/16 08:01:05;;;;;;;;;;;13.80;99.90;;;;;;5120844;27;20279;-71
2022/10/16 08:03:30;;;;;;;;;;;13.70;99.90;;;;;;5118114;27;19931;-68
2022/10/16 08:05:56;;;;;;;;;;;13.60;99.90;;;;;;5120200;27;19924;-68
2022/10/16 08:08:22;;;;;;;;;;;13.50;99.90;;;;;;5121619;27;19931;-71
2022/10/16 08:10:47;;;;;;;;;;;14.60;99.90;;;;;;5114201;27;19977;-71
2022/10/16 08:13:14;;;;;;;;;;;13.50;99.90;;;;;;5118297;27;19923;-72
2022/10/16 08:15:41;;;;;;;;;;;13.60;99.90;;;;;;5113494;27;19938;-73
2022/10/16 08:18:09;;;;;;;;;;;13.50;99.90;;;;;;5101529;28;20415;-73
2022/10/16 08:20:34;;;;;;;;;;;13.80;99.90;;;;;;5104237;28;19927;-76
2022/10/16 08:23:00;;;;;;;;;;;14.10;99.90;;;;;;5113539;27;20298;-72
2022/10/16 08:25:29;;;;;;;;;;;15.10;99.90;;;;;;5110110;28;19930;-74
2022/10/16 08:27:54;;;;;;;;;;;16.40;99.90;;;;;;5115369;27;19924;-72
2022/10/16 08:30:21;;;;;;;;;;;17.40;99.90;;;;;;5112468;28;19931;-72
2022/10/16 08:32:50;;;;;;;;;;;18.40;99.90;;;;;;5111709;28;19932;-70
2022/10/16 08:35:16;;;;;;;;;;;18.00;99.90;;;;;;5107496;28;20391;-72
2022/10/16 08:37:42;;;;;;;;;;;17.90;99.90;;;;;;5111681;28;19935;-72
2022/10/16 08:40:15;;;;;;;;;;;17.70;99.90;;;;;;5111252;28;19923;-74
2022/10/16 08:43:12;;;;;;;;;;;18.00;99.90;;;;;;5112887;28;19924;-74
2022/10/16 08:46:01;;;;;;;;;;;17.90;99.90;;;;;;5116217;28;20387;-78
2022/10/16 08:48:33;;;;;;;;;;;18.40;99.90;;;;;;5116873;28;20346;-76
2022/10/16 08:51:01;;;;;;;;;;;19.40;99.90;;;;;;5116020;28;19930;-78
2022/10/16 08:53:38;;;;;;;;;;;20.00;99.90;;;;;;5117069;27;19923;-80
2022/10/16 08:56:04;;;;;;;;;;;20.60;99.90;;;;;;5114334;28;19924;-79
2022/10/16 08:58:30;;;;;;;;;;;21.00;99.90;;;;;;5117327;28;19994;-75
2022/10/16 09:00:56;;;;;;;;;;;21.70;99.90;;;;;;5120287;28;19931;-76
2022/10/16 09:03:28;;;;;;;;;;;22.10;99.90;;;;;;5122915;28;19923;-79
2022/10/16 09:05:59;;;;;;;;;;;22.40;99.90;;;;;;5119800;28;19930;-79
2022/10/16 09:08:51;;;;;;;;;;;22.70;99.90;;;;;;5124570;27;19976;-75
2022/10/16 09:11:26;;;;;;;;;;;22.20;99.90;;;;;;5124504;27;19923;-70
2022/10/16 09:14:04;;;;;;;;;;;22.10;99.90;;;;;;5117882;27;19923;-73
2022/10/16 09:16:35;;;;;;;;;;;22.70;99.90;;;;;;5119922;27;20436;-74
2022/10/16 09:19:16;;;;;;;;;;;23.20;99.40;;;;;;5122625;27;20387;-72
2022/10/16 09:24:24;;;;;;;;;;;23.40;98.50;;;;;;5109737;22;20008;-80
2022/10/16 09:26:50;;;;;;;;;;;23.80;98.00;;;;;;5053991;28;19939;-81
2022/10/16 09:29:19;;;;;;;;;;;24.00;96.80;;;;;;5045613;28;19925;-76
2022/10/16 09:31:45;;;;;;;;;;;24.20;96.80;;;;;;5044142;28;19929;-79
2022/10/16 09:34:20;;;;;;;;;;;24.00;96.30;;;;;;5040996;28;19925;-76
2022/10/16 09:36:46;;;;;;;;;;;24.10;97.60;;;;;;5044034;28;19939;-72
2022/10/16 09:39:12;;;;;;;;;;;24.40;96.90;;;;;;5049913;28;19921;-72
2022/10/16 09:41:39;;;;;;;;;;;24.80;96.30;;;;;;5045469;28;19931;-77
2022/10/16 09:44:15;;;;;;;;;;;24.70;95.60;;;;;;5041656;28;19971;-77
2022/10/16 09:46:41;;;;;;;;;;;24.50;96.20;;;;;;5047245;28;19925;-84
2022/10/16 09:49:36;;;;;;;;;;;24.20;95.60;;;;;;5067761;28;19943;-82
2022/10/16 09:52:04;;;;;;;;;;;23.90;96.00;;;;;;5037441;28;19924;-75
2022/10/16 09:54:30;;;;;;;;;;;23.40;96.40;;;;;;5046148;28;19929;-75
2022/10/16 09:57:04;;;;;;;;;;;23.30;94.80;;;;;;5046643;28;20012;-76
2022/10/16 09:59:31;;;;;;;;;;;22.80;94.60;;;;;;5043990;28;19925;-79
2022/10/16 10:02:00;;;;;;;;;;;22.70;94.50;;;;;;5045086;28;19925;-73
2022/10/16 10:04:36;;;;;;;;;;;23.30;94.40;;;;;;5042839;28;20375;-73
2022/10/16 10:07:02;;;;;;;;;;;23.30;92.30;;;;;;5046178;28;19925;-73
2022/10/16 10:09:33;;;;;;;;;;;23.60;91.60;;;;;;5042928;28;19979;-71
2022/10/16 10:12:02;;;;;;;;;;;24.50;91.70;;;;;;5050641;28;20388;-73
2022/10/16 10:14:47;;;;;;;;;;;24.60;90.30;;;;;;5051952;28;19968;-71
2022/10/16 10:17:12;;;;;;;;;;;24.50;90.40;;;;;;5046794;28;20407;-72
2022/10/16 10:19:38;;;;;;;;;;;24.70;91.10;;;;;;5049269;28;19933;-73
2022/10/16 10:22:33;;;;;;;;;;;25.50;90.70;;;;;;5049569;28;20082;-80
2022/10/16 10:25:08;;;;;;;;;;;25.10;90.20;;;;;;5031920;28;20392;-72
2022/10/16 10:27:45;;;;;;;;;;;25.20;90.20;;;;;;5050224;28;20369;-74
2022/10/16 10:30:11;;;;;;;;;;;24.70;90.20;;;;;;5047861;28;19948;-74
2022/10/16 10:32:36;;;;;;;;;;;24.80;91.10;;;;;;5046752;28;20372;-72
2022/10/16 10:35:02;;;;;;;;;;;25.00;91.00;;;;;;5051351;28;20077;-74
2022/10/16 10:37:27;;;;;;;;;;;25.70;90.90;;;;;;5049439;28;19925;-73
2022/10/16 10:39:58;;;;;;;;;;;26.00;89.00;;;;;;5053021;28;20331;-72
2022/10/16 10:42:40;;;;;;;;;;;25.60;88.40;;;;;;5050415;28;19932;-73
2022/10/16 10:45:21;;;;;;;;;;;26.00;88.90;;;;;;5052093;28;19929;-73
2022/10/16 10:48:25;;;;;;;;;;;25.60;89.40;;;;;;5051311;28;19925;-72
2022/10/16 10:51:00;;;;;;;;;;;25.40;88.60;;;;;;5018548;28;19925;-71
2022/10/16 10:53:34;;;;;;;;;;;25.40;88.50;;;;;;5049818;28;19929;-71
2022/10/16 10:56:06;;;;;;;;;;;25.80;89.40;;;;;;5049227;28;19925;-69
2022/10/16 10:58:48;;;;;;;;;;;25.70;88.40;;;;;;5050645;28;19972;-70
2022/10/16 11:01:15;;;;;;;;;;;25.60;88.90;;;;;;5048487;28;19929;-69
2022/10/16 11:03:45;;;;;;;;;;;25.30;86.60;;;;;;5040325;28;20422;-71
2022/10/16 11:06:17;;;;;;;;;;;25.40;87.00;;;;;;5041703;28;20018;-71
2022/10/16 11:08:58;;;;;;;;;;;25.30;85.50;;;;;;5051170;28;19971;-71
2022/10/16 11:11:29;;;;;;;;;;;25.30;85.20;;;;;;5045704;28;20007;-72
2022/10/16 11:13:58;;;;;;;;;;;25.40;86.30;;;;;;5048986;28;19980;-73
2022/10/16 11:16:27;;;;;;;;;;;25.00;86.30;;;;;;5047012;28;19932;-72
2022/10/16 11:18:52;;;;;;;;;;;25.00;87.50;;;;;;5050484;28;19924;-70
2022/10/16 11:21:19;;;;;;;;;;;24.70;87.10;;;;;;5074673;28;19925;-72
2022/10/16 11:24:04;;;;;;;;;;;24.90;87.90;;;;;;5047205;28;19929;-76
2022/10/16 11:26:34;;;;;;;;;;;25.30;89.50;;;;;;5050101;28;19930;-69
2022/10/16 11:29:01;;;;;;;;;;;25.70;87.30;;;;;;5046518;28;19932;-74
2022/10/16 11:31:39;;;;;;;;;;;26.20;85.40;;;;;;5074262;28;19940;-71
2022/10/16 11:34:15;;;;;;;;;;;26.10;85.40;;;;;;5039981;28;19929;-75
2022/10/16 11:36:47;;;;;;;;;;;25.70;85.00;;;;;;5045132;28;19955;-76
2022/10/16 11:39:22;;;;;;;;;;;25.30;87.00;;;;;;5076467;28;19920;-71
2022/10/16 11:41:50;;;;;;;;;;;25.40;84.80;;;;;;5047349;28;19925;-79
2022/10/16 11:44:19;;;;;;;;;;;25.40;85.70;;;;;;5044033;28;19982;-68
2022/10/16 11:46:52;;;;;;;;;;;25.60;86.00;;;;;;5047263;28;19975;-72
2022/10/16 11:49:23;;;;;;;;;;;25.30;85.80;;;;;;5044989;28;20373;-71
2022/10/16 11:52:07;;;;;;;;;;;26.10;85.30;;;;;;5043634;28;19927;-71
2022/10/16 11:54:38;;;;;;;;;;;25.40;85.90;;;;;;5047886;28;20015;-76
2022/10/16 11:57:11;;;;;;;;;;;25.30;84.20;;;;;;5046827;28;19929;-72
2022/10/16 11:59:45;;;;;;;;;;;25.50;86.20;;;;;;5041780;28;20411;-80
2022/10/16 12:02:11;;;;;;;;;;;24.70;84.90;;;;;;5042372;28;19992;-72
2022/10/16 12:04:45;;;;;;;;;;;24.80;84.70;;;;;;5045307;28;19929;-73
2022/10/16 12:07:13;;;;;;;;;;;25.00;84.10;;;;;;5044099;28;19932;-71
2022/10/16 12:09:40;;;;;;;;;;;24.80;85.40;;;;;;5043549;28;19936;-72
2022/10/16 12:12:23;;;;;;;;;;;24.90;86.50;;;;;;5043370;28;19987;-75
2022/10/16 12:14:59;;;;;;;;;;;24.80;86.00;;;;;;5044284;28;19933;-73
2022/10/16 12:17:34;;;;;;;;;;;24.80;86.80;;;;;;5039787;28;19939;-71
2022/10/16 12:20:20;;;;;;;;;;;24.60;85.40;;;;;;5042322;28;19925;-71
2022/10/16 12:22:55;;;;;;;;;;;24.70;85.80;;;;;;5041397;28;19924;-74
2022/10/16 12:25:22;;;;;;;;;;;24.60;86.50;;;;;;5041800;28;20015;-71
2022/10/16 12:27:55;;;;;;;;;;;24.20;87.40;;;;;;5045552;28;19920;-72
2022/10/16 12:30:23;;;;;;;;;;;24.30;88.00;;;;;;5040631;28;20063;-71
2022/10/16 12:32:59;;;;;;;;;;;24.90;87.20;;;;;;5050101;28;20009;-67
2022/10/16 12:35:27;;;;;;;;;;;24.80;87.80;;;;;;5041398;28;19932;-69
2022/10/16 12:37:53;;;;;;;;;;;24.40;87.60;;;;;;5041732;28;19929;-68
2022/10/16 12:40:21;;;;;;;;;;;24.30;87.20;;;;;;5044542;28;20018;-69
2022/10/16 12:42:47;;;;;;;;;;;24.50;87.40;;;;;;5042164;28;19925;-71
2022/10/16 12:45:24;;;;;;;;;;;24.30;86.80;;;;;;5049566;28;20292;-70
2022/10/16 12:47:51;;;;;;;;;;;24.30;89.50;;;;;;5069629;28;19928;-70
2022/10/16 12:50:44;;;;;;;;;;;24.40;88.80;;;;;;5043489;28;19924;-69
2022/10/16 12:53:20;;;;;;;;;;;23.80;88.20;;;;;;5043186;28;20009;-71
2022/10/16 12:55:52;;;;;;;;;;;23.70;88.70;;;;;;5076029;28;20373;-71
2022/10/16 12:58:17;;;;;;;;;;;23.20;89.10;;;;;;5045698;28;19925;-77
2022/10/16 13:00:45;;;;;;;;;;;22.50;90.10;;;;;;5045684;28;19925;-69
2022/10/16 13:03:26;;;;;;;;;;;22.10;90.80;;;;;;5044556;28;20384;-75
2022/10/16 13:06:14;;;;;;;;;;;21.80;90.50;;;;;;5044636;28;20007;-68
2022/10/16 13:08:44;;;;;;;;;;;21.30;91.60;;;;;;5025149;28;19939;-70
2022/10/16 13:11:12;;;;;;;;;;;20.80;92.60;;;;;;5050581;28;19939;-71
2022/10/16 13:13:38;;;;;;;;;;;20.20;93.10;;;;;;5044099;28;19925;-72
2022/10/16 13:16:06;;;;;;;;;;;20.10;93.80;;;;;;5053323;28;19952;-70
2022/10/16 13:18:43;;;;;;;;;;;19.80;93.90;;;;;;5055246;28;19933;-71
2022/10/16 13:21:08;;;;;;;;;;;19.80;93.90;;;;;;5055028;28;20308;-71
2022/10/16 13:24:01;;;;;;;;;;;19.50;94.20;;;;;;5076866;28;19935;-71
2022/10/16 13:26:26;;;;;;;;;;;19.10;94.90;;;;;;5041908;28;19924;-72
2022/10/16 13:28:52;;;;;;;;;;;18.90;94.80;;;;;;5050970;28;20285;-71
2022/10/16 13:31:19;;;;;;;;;;;18.90;95.00;;;;;;5052122;28;20387;-72
2022/10/16 13:33:47;;;;;;;;;;;18.80;95.50;;;;;;5047424;28;20008;-71
2022/10/16 13:36:20;;;;;;;;;;;18.70;95.80;;;;;;5050664;28;19935;-71
2022/10/16 13:38:46;;;;;;;;;;;18.60;96.10;;;;;;5049065;28;19924;-71
2022/10/16 13:41:16;;;;;;;;;;;18.40;96.60;;;;;;5054011;28;19955;-70
2022/10/16 13:43:51;;;;;;;;;;;18.20;97.20;;;;;;5050183;28;19979;-72
2022/10/16 13:46:23;;;;;;;;;;;18.00;97.40;;;;;;5049713;28;19975;-70
2022/10/16 13:49:08;;;;;;;;;;;17.90;97.60;;;;;;5050678;28;19938;-70
2022/10/16 13:51:33;;;;;;;;;;;17.90;97.90;;;;;;5047117;28;20440;-70
2022/10/16 13:53:59;;;;;;;;;;;17.90;97.70;;;;;;5047618;28;19933;-71
2022/10/16 13:56:27;;;;;;;;;;;17.80;97.90;;;;;;5050614;28;19925;-71
2022/10/16 13:59:00;;;;;;;;;;;17.90;97.90;;;;;;5051952;28;20339;-71
2022/10/16 14:01:40;;;;;;;;;;;17.80;98.00;;;;;;5052960;28;20027;-71
2022/10/16 14:04:07;;;;;;;;;;;17.80;97.90;;;;;;5049921;28;20396;-72
2022/10/16 14:06:32;;;;;;;;;;;17.70;98.70;;;;;;5048464;28;19925;-71
2022/10/16 14:09:04;;;;;;;;;;;17.70;98.00;;;;;;5043374;28;19928;-71
2022/10/16 14:11:30;;;;;;;;;;;17.60;98.40;;;;;;5045240;28;19955;-70
2022/10/16 14:13:56;;;;;;;;;;;17.50;98.70;;;;;;5051201;28;20365;-71
2022/10/16 14:16:29;;;;;;;;;;;17.60;98.00;;;;;;5048617;28;20320;-71
2022/10/16 14:18:56;;;;;;;;;;;17.40;98.40;;;;;;5050900;28;19928;-70
2022/10/16 14:21:22;;;;;;;;;;;17.40;98.60;;;;;;5047496;28;19931;-70
2022/10/16 14:23:48;;;;;;;;;;;17.20;98.90;;;;;;5047902;28;20284;-69
2022/10/16 14:26:15;;;;;;;;;;;17.00;99.30;;;;;;5049291;28;19948;-71
2022/10/16 14:28:41;;;;;;;;;;;17.10;99.20;;;;;;5046908;28;20430;-69